Overview Statistics Trail Chart Weather Telemetry Raw packets
 

This is the latest recevied weather packets stored in our database for station/object LKCS. If no packets are shown the sender has not sent any weather packets the latest 10 day(s).

<< 18 19 20 21 22 23 24 >>
Time Temp. Humidity Pressure Rain* Wind** Luminosity Snow
1787952751 17.78° C 93% 1016 hPa - - - -
1787950973 17.78° C 93% 1015 hPa - - - -
1787950809 17.78° C 93% 1014 hPa - - - -
1787949186 17.78° C 100% 1015 hPa - - - -
1787948322 17.78° C 100% 1014 hPa - - - -
1787948071 17.78° C 100% 1014 hPa - - - -
1787947373 17.78° C 100% 1014 hPa - - - -
1787945585 17.78° C 93% 1015 hPa - - - -
1787943768 17.78° C 93% 1015 hPa - - - -
1787941964 17.78° C 93% 1014 hPa - - - -
1787940250 17.78° C 100% 1014 hPa - - - -
1787940167 18.89° C 93% 1014 hPa - - - -
1787939525 18.89° C 93% 1015 hPa - - - -
1787938385 17.78° C 100% 1016 hPa - - - -
1787936835 17.78° C 93% 1015 hPa - - - -
1787936649 18.89° C 88% 1015 hPa - - - -
1787936560 22.78° C 64% 1015 hPa - - - -
1787936131 22.78° C 64% 1015 hPa - - - -
1787934785 23.89° C 60% 1013 hPa - - - -
1787932969 25° C 57% 1013 hPa - - - -
1787931186 27.22° C 51% 1012 hPa - - - -
1787929374 27.78° C 51% 1012 hPa - - - -
1787927584 30° C 42% 1012 hPa - - - -
1787925776 32.22° C 35% 1012 hPa - - - -
1787923985 32.22° C 35% 1011 hPa - - - -

* Rain since midnight (hover to see other rain measurements)
** Current wind speed in m/s (hover to see current wind gust speed)